Time;durP1;ratioP1;P1;durP2;ratioP2;P2;SDS_P1;SDS_P2;PMS_P1;PMS_P2;Temp;Humidity;BMP_temperature;BMP_pressure;BME280_temperature;BME280_humidity;BME280_pressure;Samples;Min_cycle;Max_cycle;Signal;HPM_P1;HPM_P2
2022/10/13 00:04:43;;;;;;;8.20;7.40;;;;;;;4.76;86.13;101592.82;88560;1264;22107;-77
2022/10/13 00:06:52;;;;;;;14.50;8.40;;;;;;;4.76;86.42;101587.47;88796;1302;22026;-77
2022/10/13 00:09:01;;;;;;;13.90;8.80;;;;;;;4.74;86.44;101592.13;88528;1312;22102;-77
2022/10/13 00:11:15;;;;;;;13.70;9.00;;;;;;;4.73;86.37;101591.60;88525;1296;22064;-76
2022/10/13 00:13:24;;;;;;;13.40;7.60;;;;;;;4.71;86.44;101588.30;88508;1304;22065;-76
2022/10/13 00:15:32;;;;;;;13.40;7.90;;;;;;;4.69;86.43;101584.66;88527;1312;22660;-76
2022/10/13 00:17:41;;;;;;;16.30;8.80;;;;;;;4.66;86.52;101585.34;88511;1312;22715;-76
2022/10/13 00:19:50;;;;;;;15.00;10.20;;;;;;;4.64;86.41;101587.58;88809;1290;22085;-77
2022/10/13 00:21:59;;;;;;;16.20;8.80;;;;;;;4.61;86.32;101584.96;88686;1300;22071;-76
2022/10/13 00:24:09;;;;;;;15.30;9.40;;;;;;;4.57;86.45;101583.39;88404;1307;22123;-76
2022/10/13 00:26:18;;;;;;;21.20;9.20;;;;;;;4.54;86.37;101581.12;88500;1312;22093;-75
2022/10/13 00:28:27;;;;;;;16.30;9.00;;;;;;;4.50;86.23;101577.64;88773;1290;22209;-76
2022/10/13 00:35:01;;;;;;;15.00;8.50;;;;;;;4.35;86.55;101582.21;88603;1272;22028;-76
2022/10/13 00:37:10;;;;;;;14.80;9.00;;;;;;;4.32;86.48;101582.89;88503;1306;22126;-76
2022/10/13 00:39:19;;;;;;;14.90;8.20;;;;;;;4.29;86.48;101581.98;88698;1300;22089;-76
2022/10/13 00:41:28;;;;;;;20.00;8.80;;;;;;;4.25;86.57;101579.36;88785;1292;22681;-76
2022/10/13 00:47:57;;;;;;;12.10;8.60;;;;;;;4.12;86.92;101581.52;88541;1279;22089;-75
2022/10/13 00:50:05;;;;;;;;;;;;;;;4.10;86.99;101578.05;88529;1303;22125;-75
2022/10/13 00:52:14;;;;;;;16.20;9.00;;;;;;;4.05;87.04;101580.95;88786;1289;22036;-76
2022/10/13 00:54:24;;;;;;;12.80;9.30;;;;;;;4.05;87.17;101578.87;88548;1299;22645;-76
2022/10/13 00:56:33;;;;;;;14.80;8.90;;;;;;;4.04;87.04;101579.04;88817;1287;22020;-76
2022/10/13 00:58:42;;;;;;;17.80;9.50;;;;;;;4.02;86.98;101576.95;88536;1304;22061;-77
2022/10/13 01:01:41;;;;;;;17.60;9.30;;;;;;;3.99;86.61;101574.50;88797;1297;22042;-77
2022/10/13 01:03:50;;;;;;;17.50;9.10;;;;;;;3.93;86.97;101570.32;88466;1291;22053;-74
2022/10/13 01:06:42;;;;;;;14.00;9.50;;;;;;;3.90;86.82;101568.73;88455;1306;22055;-75
2022/10/13 01:08:53;;;;;;;21.90;10.50;;;;;;;3.84;86.87;101563.85;88487;1292;22812;-76
2022/10/13 01:11:11;;;;;;;14.90;9.20;;;;;;;3.82;86.94;101564.00;88364;1300;22117;-75
2022/10/13 01:13:23;;;;;;;16.50;9.30;;;;;;;3.80;87.13;101562.09;88581;1286;22057;-75
2022/10/13 01:15:39;;;;;;;14.80;9.90;;;;;;;3.77;86.90;101558.96;88329;1301;22047;-75
2022/10/13 01:17:54;;;;;;;12.30;8.40;;;;;;;3.74;87.04;101560.30;88515;1282;22204;-77
2022/10/13 01:24:32;;;;;;;17.50;11.10;;;;;;;3.64;87.19;101557.63;88578;1289;22761;-75
2022/10/13 01:27:05;;;;;;;15.20;9.50;;;;;;;3.61;87.12;101558.28;88008;1299;1002135;-75
2022/10/13 01:29:32;;;;;;;12.80;8.80;;;;;;;3.58;87.29;101561.20;88591;1304;22069;-76
2022/10/13 01:31:42;;;;;;;26.20;10.20;;;;;;;3.55;87.20;101559.44;88530;1299;22148;-75
2022/10/13 01:33:52;;;;;;;;;;;;;;;3.52;87.11;101560.97;88463;1292;22416;-75
2022/10/13 01:36:15;;;;;;;15.50;9.90;;;;;;;3.47;87.24;101557.63;88466;1298;22066;-76
2022/10/13 01:38:30;;;;;;;12.40;8.90;;;;;;;3.45;87.28;101558.81;88474;1301;22058;-77
2022/10/13 01:40:43;;;;;;;14.60;9.50;;;;;;;3.42;87.52;101559.98;88465;1306;22051;-77
2022/10/13 01:42:56;;;;;;;14.50;10.50;;;;;;;3.39;87.26;101558.93;88478;1306;22048;-76
2022/10/13 01:45:06;;;;;;;18.30;11.70;;;;;;;3.36;87.20;101553.20;88460;1305;22094;-76
2022/10/13 01:47:15;;;;;;;13.40;10.50;;;;;;;3.34;87.27;101553.18;88464;1300;21935;-75
2022/10/13 01:49:26;;;;;;;23.30;11.40;;;;;;;3.33;87.62;101550.76;88715;1297;22074;-75
2022/10/13 01:51:35;;;;;;;16.50;11.60;;;;;;;3.33;87.38;101550.41;88380;1305;22101;-75
2022/10/13 01:53:45;;;;;;;21.50;11.00;;;;;;;3.31;87.36;101549.19;88446;1305;22711;-75
2022/10/13 01:55:58;;;;;;;21.20;11.90;;;;;;;3.28;87.37;101543.81;88614;1299;22622;-75
2022/10/13 01:58:10;;;;;;;18.50;10.50;;;;;;;3.26;87.34;101544.13;88446;1300;22114;-75
2022/10/13 02:00:20;;;;;;;17.70;11.40;;;;;;;3.23;87.57;101544.10;88742;1288;22027;-75
2022/10/13 02:05:48;;;;;;;21.10;12.30;;;;;;;3.14;87.48;101539.17;88596;1257;22093;-76
2022/10/13 02:08:02;;;;;;;18.70;10.60;;;;;;;3.12;87.53;101541.05;88605;1304;22063;-76
2022/10/13 02:10:14;;;;;;;21.30;12.60;;;;;;;3.10;87.55;101537.76;88748;1299;22576;-76
2022/10/13 02:12:27;;;;;;;18.40;11.20;;;;;;;3.08;87.65;101538.42;88601;1304;22058;-76
2022/10/13 02:14:37;;;;;;;19.30;11.30;;;;;;;3.07;87.72;101533.06;88449;1306;22102;-76
2022/10/13 02:16:46;;;;;;;21.60;11.30;;;;;;;3.06;87.80;101535.29;88815;1296;22034;-76
2022/10/13 02:18:55;;;;;;;17.20;12.10;;;;;;;3.03;87.84;101530.95;88816;1291;22028;-76
2022/10/13 02:21:04;;;;;;;19.30;12.80;;;;;;;3.01;87.80;101531.27;88811;1287;22012;-76
2022/10/13 02:23:15;;;;;;;19.30;13.00;;;;;;;2.98;87.79;101530.71;88828;1288;22021;-76
2022/10/13 02:28:30;;;;;;;20.10;12.60;;;;;;;2.92;87.84;101526.85;88393;1296;22681;-75
2022/10/13 02:30:40;;;;;;;18.80;12.70;;;;;;;2.90;87.86;101527.35;88623;1286;22016;-76
2022/10/13 02:32:49;;;;;;;20.00;12.60;;;;;;;2.89;87.72;101528.02;88420;1307;22083;-76
2022/10/13 02:34:58;;;;;;;23.30;12.80;;;;;;;2.86;87.78;101527.13;88584;1300;22200;-75
2022/10/13 02:37:07;;;;;;;19.70;13.70;;;;;;;2.83;87.79;101527.61;88412;1298;22043;-75
2022/10/13 02:39:16;;;;;;;21.50;14.10;;;;;;;2.81;87.82;101528.63;88575;1299;22167;-75
2022/10/13 02:41:25;;;;;;;26.70;15.10;;;;;;;2.80;87.75;101529.13;88631;1290;22008;-75
2022/10/13 02:43:36;;;;;;;19.30;14.20;;;;;;;2.78;87.88;101527.89;88408;1301;22111;-75
2022/10/13 02:45:45;;;;;;;22.10;13.80;;;;;;;2.76;88.03;101526.32;88635;1299;22698;-75
2022/10/13 02:47:54;;;;;;;21.80;12.80;;;;;;;2.75;88.02;101527.69;88624;1299;22070;-75
2022/10/13 02:50:03;;;;;;;26.60;12.90;;;;;;;2.73;88.07;101526.96;88627;1299;22043;-75
2022/10/13 02:52:12;;;;;;;16.10;12.30;;;;;;;2.70;88.00;101526.94;88576;1283;22069;-75
2022/10/13 02:54:21;;;;;;;25.80;12.40;;;;;;;2.68;88.09;101525.34;88630;1299;22629;-75
2022/10/13 02:56:30;;;;;;;19.00;12.40;;;;;;;2.66;88.11;101531.52;88406;1307;22724;-75
2022/10/13 02:58:38;;;;;;;18.90;11.20;;;;;;;2.64;88.18;101525.64;88416;1307;22066;-75
2022/10/13 03:00:47;;;;;;;19.30;12.40;;;;;;;2.63;88.29;101526.84;88434;1307;22072;-77
2022/10/13 03:02:56;;;;;;;18.90;11.30;;;;;;;2.61;88.23;101524.40;88633;1272;21994;-75
2022/10/13 03:05:05;;;;;;;17.60;11.50;;;;;;;2.59;88.17;101528.34;88810;1285;22008;-75
2022/10/13 03:07:14;;;;;;;27.40;14.00;;;;;;;2.57;88.16;101527.63;88682;1299;22063;-76
2022/10/13 03:09:23;;;;;;;21.40;13.00;;;;;;;2.55;88.31;101525.70;88807;1296;22581;-76
2022/10/13 03:11:32;;;;;;;17.50;12.70;;;;;;;2.54;88.31;101521.38;88641;1304;22778;-75
2022/10/13 03:13:41;;;;;;;19.20;12.20;;;;;;;2.53;88.40;101522.23;88838;1285;22014;-75
2022/10/13 03:15:50;;;;;;;16.00;10.40;;;;;;;2.52;88.55;101519.28;88635;1304;22041;-75
2022/10/13 03:19:06;;;;;;;18.40;12.10;;;;;;;2.50;88.59;101516.16;88836;1284;22050;-75
2022/10/13 03:21:15;;;;;;;30.60;12.90;;;;;;;2.46;88.49;101515.41;88443;1285;22745;-75
2022/10/13 03:23:24;;;;;;;23.40;13.10;;;;;;;2.45;88.33;101510.06;88691;1299;22005;-76
2022/10/13 03:25:33;;;;;;;18.10;11.10;;;;;;;2.44;88.59;101506.25;88704;1288;22758;-76
2022/10/13 03:27:42;;;;;;;18.80;12.20;;;;;;;2.42;88.59;101503.83;88487;1297;22065;-76
2022/10/13 03:29:50;;;;;;;20.70;11.40;;;;;;;2.40;88.60;101507.05;88469;1306;22076;-75
2022/10/13 03:31:59;;;;;;;20.50;12.60;;;;;;;2.39;88.60;101505.33;88469;1299;22107;-75
2022/10/13 03:34:08;;;;;;;19.50;12.30;;;;;;;2.37;88.58;101503.94;88357;1309;22133;-75
2022/10/13 03:36:17;;;;;;;15.40;11.20;;;;;;;2.37;88.59;101505.13;88685;1299;22734;-75
2022/10/13 03:38:27;;;;;;;18.70;11.20;;;;;;;2.36;88.71;101501.33;88697;1299;22042;-75
2022/10/13 03:40:36;;;;;;;23.20;11.80;;;;;;;2.35;88.79;101501.48;88451;1306;22706;-75
2022/10/13 03:42:46;;;;;;;19.30;12.40;;;;;;;2.34;88.82;101503.54;88483;1301;22114;-75
2022/10/13 03:44:56;;;;;;;21.10;12.40;;;;;;;2.33;88.77;101501.63;88472;1290;22762;-76
2022/10/13 03:47:04;;;;;;;19.10;11.20;;;;;;;2.30;88.79;101502.98;88455;1306;22428;-76
2022/10/13 03:49:13;;;;;;;16.50;10.90;;;;;;;2.29;88.74;101504.51;88481;1306;22066;-75
2022/10/13 03:51:23;;;;;;;18.20;11.60;;;;;;;2.27;88.67;101505.52;88463;1306;22733;-75
2022/10/13 03:53:31;;;;;;;21.30;12.30;;;;;;;2.25;88.76;101507.73;88702;1299;22019;-75
2022/10/13 03:55:40;;;;;;;17.20;11.00;;;;;;;2.24;88.76;101505.81;88695;1299;22048;-75
2022/10/13 03:57:49;;;;;;;19.20;11.90;;;;;;;2.22;88.75;101508.03;88482;1304;22041;-75
2022/10/13 03:59:58;;;;;;;21.80;12.60;;;;;;;2.21;88.81;101514.03;88361;1309;22712;-76
2022/10/13 04:02:07;;;;;;;22.00;11.70;;;;;;;2.20;88.87;101515.40;88722;1288;22013;-76
2022/10/13 04:04:16;;;;;;;20.30;11.40;;;;;;;2.20;88.94;101510.56;88486;1306;22073;-76
2022/10/13 04:06:25;;;;;;;20.30;12.10;;;;;;;2.19;88.91;101514.69;88683;1295;22029;-76
2022/10/13 04:08:34;;;;;;;21.00;12.20;;;;;;;2.16;88.84;101512.41;88476;1297;22608;-75
2022/10/13 04:10:43;;;;;;;17.70;12.30;;;;;;;2.13;88.81;101513.91;88479;1306;22036;-75
2022/10/13 04:12:53;;;;;;;22.70;12.20;;;;;;;2.11;88.70;101511.30;88693;1294;22063;-75
2022/10/13 04:16:09;;;;;;;18.80;12.10;;;;;;;2.08;88.82;101511.08;88600;1285;22070;-75
2022/10/13 04:18:18;;;;;;;15.10;11.10;;;;;;;2.02;88.68;101515.31;88565;1300;22107;-75
2022/10/13 04:20:26;;;;;;;16.50;12.10;;;;;;;2.02;88.93;101514.94;88543;1291;22705;-75
2022/10/13 04:22:35;;;;;;;20.90;11.10;;;;;;;2.01;89.01;101517.34;88657;1289;22012;-75
2022/10/13 04:24:44;;;;;;;20.70;13.10;;;;;;;1.99;88.92;101512.51;88439;1300;22070;-75
2022/10/13 04:26:53;;;;;;;16.90;11.60;;;;;;;1.98;88.95;101517.65;88535;1281;22130;-75
2022/10/13 04:29:02;;;;;;;17.80;13.10;;;;;;;1.97;88.77;101515.39;88600;1299;22046;-75
2022/10/13 04:31:10;;;;;;;20.40;12.50;;;;;;;1.96;88.98;101519.68;88731;1275;22317;-76
2022/10/13 04:33:19;;;;;;;21.30;12.00;;;;;;;1.95;89.08;101520.01;88413;1301;22095;-72
2022/10/13 04:37:45;;;;;;;22.60;12.80;;;;;;;1.92;89.16;101516.87;88349;1290;22020;-74
2022/10/13 04:39:54;;;;;;;22.60;12.20;;;;;;;1.91;89.20;101521.67;88586;1281;22000;-74
2022/10/13 04:42:02;;;;;;;20.50;12.60;;;;;;;1.91;89.18;101521.66;88349;1300;22063;-75
2022/10/13 04:44:11;;;;;;;18.90;12.30;;;;;;;1.89;89.14;101523.02;88321;1304;22655;-76
2022/10/13 04:46:22;;;;;;;26.40;12.60;;;;;;;1.88;89.08;101520.41;88339;1309;22032;-73
2022/10/13 04:48:30;;;;;;;19.40;13.00;;;;;;;1.87;89.21;101522.47;88341;1293;22538;-76
2022/10/13 04:50:39;;;;;;;24.50;12.10;;;;;;;1.86;89.28;101525.02;88591;1300;22654;-76
2022/10/13 04:52:48;;;;;;;20.60;13.40;;;;;;;1.85;89.23;101525.70;88579;1290;22004;-76
2022/10/13 04:54:57;;;;;;;25.20;13.10;;;;;;;1.85;89.37;101528.10;88587;1302;22678;-76
2022/10/13 04:57:06;;;;;;;22.00;14.00;;;;;;;1.84;89.37;101528.95;88590;1295;22094;-75
2022/10/13 04:59:15;;;;;;;23.10;13.60;;;;;;;1.84;89.50;101529.81;88575;1295;22609;-75
2022/10/13 05:01:24;;;;;;;22.10;13.20;;;;;;;1.84;89.40;101531.02;88309;1302;22113;-75
2022/10/13 05:03:33;;;;;;;18.10;13.80;;;;;;;1.84;89.67;101530.34;88568;1290;22691;-75
2022/10/13 05:05:42;;;;;;;29.10;13.90;;;;;;;1.85;89.55;101530.86;88339;1304;22107;-76
2022/10/13 05:07:51;;;;;;;23.20;13.50;;;;;;;1.85;89.62;101525.17;88588;1290;22020;-76
2022/10/13 05:10:00;;;;;;;16.80;12.90;;;;;;;1.86;89.77;101524.16;88572;1290;22559;-76
2022/10/13 05:12:10;;;;;;;25.30;13.40;;;;;;;1.87;89.67;101520.73;88582;1282;22057;-76
2022/10/13 05:14:24;;;;;;;21.90;13.10;;;;;;;1.87;89.70;101522.12;88477;1302;22652;-78
2022/10/13 05:21:12;;;;;;;21.90;13.10;;;;;;;1.87;89.88;101526.57;88610;1275;22117;-75
2022/10/13 05:23:21;;;;;;;29.30;14.50;;;;;;;1.90;89.92;101521.47;88815;1298;22117;-75
2022/10/13 05:25:30;;;;;;;25.90;13.70;;;;;;;1.91;90.04;101521.50;88806;1296;22049;-75
2022/10/13 05:27:39;;;;;;;22.50;13.60;;;;;;;1.93;90.05;101518.27;88607;1305;22044;-76
2022/10/13 05:29:47;;;;;;;22.60;13.70;;;;;;;1.96;90.09;101516.40;88583;1293;22054;-76
2022/10/13 05:31:56;;;;;;;28.40;13.20;;;;;;;1.98;90.26;101510.60;88583;1300;22059;-76
2022/10/13 05:34:05;;;;;;;24.40;13.50;;;;;;;2.02;90.24;101515.98;88488;1306;22073;-76
2022/10/13 05:36:15;;;;;;;17.70;13.20;;;;;;;2.06;90.36;101514.83;88584;1306;22098;-76
2022/10/13 05:38:22;;;;;;;;;;;;;;;2.10;90.51;101517.30;88612;1308;22132;-78
2022/10/13 05:40:32;;;;;;;16.90;12.50;;;;;;;2.12;90.73;101521.81;88831;1293;22037;-78
2022/10/13 05:42:42;;;;;;;17.70;13.20;;;;;;;2.19;90.96;101525.02;88644;1304;22062;-76
2022/10/13 05:44:49;;;;;;;;;;;;;;;2.26;90.99;101523.24;88715;1300;22303;-76
2022/10/13 05:46:58;;;;;;;20.90;13.20;;;;;;;2.31;91.25;101525.53;88814;1276;22545;-76
2022/10/13 05:49:07;;;;;;;21.10;14.30;;;;;;;2.41;91.31;101524.98;88795;1285;22022;-76
2022/10/13 05:51:19;;;;;;;20.30;13.90;;;;;;;2.49;91.52;101524.08;88611;1304;22020;-76
2022/10/13 05:53:29;;;;;;;22.70;13.90;;;;;;;2.58;91.53;101527.98;88623;1289;22055;-74
2022/10/13 05:55:38;;;;;;;20.80;15.10;;;;;;;2.68;91.86;101524.14;88816;1296;22031;-76
2022/10/13 05:57:48;;;;;;;25.40;16.50;;;;;;;2.80;92.25;101525.86;88757;1290;22091;-75
2022/10/13 05:59:57;;;;;;;25.80;15.40;;;;;;;2.95;92.66;101526.90;88827;1296;22062;-75
2022/10/13 06:02:08;;;;;;;23.00;16.50;;;;;;;3.10;92.68;101528.27;88651;1304;22058;-76
2022/10/13 06:04:19;;;;;;;26.30;16.10;;;;;;;3.35;93.02;101525.77;88620;1303;22071;-76
2022/10/13 06:06:28;;;;;;;24.30;16.60;;;;;;;3.54;93.31;101528.72;88841;1296;22049;-76
2022/10/13 06:08:37;;;;;;;22.10;15.70;;;;;;;3.70;93.54;101531.80;88852;1297;22120;-76
2022/10/13 06:10:46;;;;;;;24.60;15.70;;;;;;;3.84;93.68;101531.23;88607;1303;22082;-76
2022/10/13 06:12:55;;;;;;;27.30;17.60;;;;;;;3.95;93.65;101530.80;88742;1295;22041;-76
2022/10/13 06:15:04;;;;;;;26.30;16.60;;;;;;;4.06;93.63;101532.95;88724;1299;22104;-76
2022/10/13 06:17:14;;;;;;;28.60;16.60;;;;;;;4.18;93.94;101531.48;88832;1294;22045;-75
2022/10/13 06:19:22;;;;;;;25.00;15.90;;;;;;;4.32;93.95;101530.88;88810;1282;22149;-75
2022/10/13 06:21:31;;;;;;;25.40;18.10;;;;;;;4.44;94.05;101530.95;88799;1286;22588;-75
2022/10/13 06:23:40;;;;;;;26.30;18.10;;;;;;;4.56;94.14;101529.46;88605;1303;22534;-75
2022/10/13 06:25:52;;;;;;;31.50;18.50;;;;;;;4.69;94.19;101530.04;88543;1298;22139;-75
2022/10/13 06:28:01;;;;;;;36.20;21.50;;;;;;;4.84;94.43;101531.83;88615;1303;22587;-76
2022/10/13 06:30:12;;;;;;;30.10;19.00;;;;;;;4.98;94.76;101532.42;88620;1303;22720;-76
2022/10/13 06:32:21;;;;;;;34.60;20.20;;;;;;;5.11;94.60;101528.30;88598;1303;22826;-75
2022/10/13 06:34:30;;;;;;;31.10;19.90;;;;;;;5.26;94.81;101527.14;88613;1303;22743;-75
2022/10/13 06:36:40;;;;;;;34.50;19.20;;;;;;;5.39;94.96;101528.20;88629;1299;22049;-73
2022/10/13 06:38:49;;;;;;;34.00;18.80;;;;;;;5.53;94.79;101530.30;88823;1291;22030;-74
2022/10/13 06:41:01;;;;;;;34.20;19.10;;;;;;;5.66;94.77;101532.05;88768;1297;22652;-74
2022/10/13 06:43:10;;;;;;;36.20;21.20;;;;;;;5.81;94.84;101526.51;88618;1289;22059;-75
2022/10/13 06:45:19;;;;;;;36.00;19.80;;;;;;;5.97;94.92;101523.08;88806;1291;22045;-75
2022/10/13 06:47:28;;;;;;;35.10;18.30;;;;;;;6.12;94.84;101524.98;88763;1298;22046;-73
2022/10/13 06:49:37;;;;;;;36.30;20.70;;;;;;;6.27;94.86;101523.39;88636;1297;22046;-73
2022/10/13 06:51:46;;;;;;;33.90;19.40;;;;;;;6.41;94.64;101522.83;88767;1299;21937;-71
2022/10/13 06:53:57;;;;;;;39.50;21.50;;;;;;;6.55;94.63;101516.03;88827;1296;22010;-72
2022/10/13 06:56:05;;;;;;;;;;;;;;;6.67;94.56;101518.59;88760;1299;22335;-72
2022/10/13 06:58:14;;;;;;;35.60;20.00;;;;;;;6.78;94.62;101519.77;88839;1297;22680;-73
2022/10/13 07:00:23;;;;;;;38.20;21.30;;;;;;;6.92;94.57;101517.80;88615;1303;22080;-74
2022/10/13 07:02:32;;;;;;;40.80;20.80;;;;;;;7.05;94.40;101519.13;88822;1296;22114;-75
2022/10/13 07:04:41;;;;;;;34.90;17.60;;;;;;;7.20;94.50;101519.73;88820;1286;22677;-73
2022/10/13 07:06:52;;;;;;;38.60;17.20;;;;;;;7.36;94.50;101516.52;88796;1290;22044;-73
2022/10/13 07:09:06;;;;;;;27.00;14.90;;;;;;;7.52;93.91;101513.97;88611;1290;22680;-74
2022/10/13 07:11:17;;;;;;;30.30;17.20;;;;;;;7.67;93.39;101512.99;88631;1295;22094;-74
2022/10/13 07:13:27;;;;;;;20.40;14.10;;;;;;;7.83;93.36;101511.65;88622;1298;22058;-73
2022/10/13 07:15:40;;;;;;;22.80;13.90;;;;;;;7.99;93.00;101508.39;88630;1297;22055;-72
2022/10/13 07:17:52;;;;;;;23.10;11.80;;;;;;;8.16;92.41;101502.48;88823;1296;22088;-73
2022/10/13 07:20:02;;;;;;;18.50;10.80;;;;;;;8.33;91.60;101498.85;88770;1296;22051;-73
2022/10/13 07:22:11;;;;;;;29.20;11.40;;;;;;;8.50;91.14;101492.94;88814;1282;21936;-73
2022/10/13 07:24:20;;;;;;;23.10;12.70;;;;;;;8.81;90.91;101491.70;88828;1285;22089;-73
2022/10/13 07:26:29;;;;;;;21.00;11.90;;;;;;;9.24;90.65;101487.45;88826;1285;22079;-74
2022/10/13 07:28:38;;;;;;;23.80;12.60;;;;;;;9.65;91.56;101486.63;88624;1294;22058;-73
2022/10/13 07:30:47;;;;;;;27.70;10.40;;;;;;;10.31;93.01;101483.73;88816;1297;22080;-73
2022/10/13 07:32:55;;;;;;;26.40;12.40;;;;;;;11.13;91.37;101479.95;88636;1298;22103;-73
2022/10/13 07:35:05;;;;;;;21.90;10.00;;;;;;;12.12;90.17;101474.02;88823;1296;22723;-73
2022/10/13 07:37:13;;;;;;;22.00;9.70;;;;;;;13.13;86.07;101478.67;88595;1296;22772;-73
2022/10/13 07:39:22;;;;;;;15.50;8.30;;;;;;;14.06;81.18;101476.33;88790;1294;22035;-73
2022/10/13 07:41:31;;;;;;;14.20;8.50;;;;;;;14.80;76.80;101467.54;88786;1296;22044;-73
2022/10/13 07:43:40;;;;;;;17.60;8.50;;;;;;;15.42;74.81;101463.52;88591;1298;22141;-73
2022/10/13 07:45:49;;;;;;;16.50;8.50;;;;;;;16.14;72.24;101460.30;88783;1297;22046;-73
2022/10/13 07:47:58;;;;;;;14.00;8.50;;;;;;;16.91;68.24;101454.92;88604;1307;22121;-73
2022/10/13 07:50:09;;;;;;;14.90;7.90;;;;;;;17.60;66.24;101453.49;88115;1299;668911;-73
2022/10/13 07:52:17;;;;;;;12.70;7.40;;;;;;;18.31;62.58;101450.02;88815;1296;22039;-73
2022/10/13 07:54:26;;;;;;;14.60;8.10;;;;;;;18.99;60.14;101448.65;88804;1294;22070;-73
2022/10/13 07:56:35;;;;;;;18.30;8.60;;;;;;;19.61;58.10;101447.95;88779;1296;22092;-73
2022/10/13 07:58:45;;;;;;;15.00;7.50;;;;;;;20.10;56.36;101446.80;88698;1299;22732;-73
2022/10/13 08:00:58;;;;;;;;;;;;;;;20.56;54.07;101446.47;88584;1307;22320;-73
2022/10/13 08:03:07;;;;;;;14.90;6.60;;;;;;;20.80;51.75;101447.08;88685;1288;22069;-73
2022/10/13 08:05:16;;;;;;;11.20;6.70;;;;;;;21.03;50.81;101448.95;88803;1285;22035;-73
2022/10/13 08:07:25;;;;;;;13.00;6.10;;;;;;;21.26;49.50;101442.98;88593;1304;22141;-73
2022/10/13 08:09:35;;;;;;;11.60;6.60;;;;;;;21.35;48.14;101439.92;88798;1296;22069;-73
2022/10/13 08:11:45;;;;;;;12.70;6.40;;;;;;;21.29;47.76;101437.14;88793;1288;22006;-73
2022/10/13 08:13:54;;;;;;;11.10;6.00;;;;;;;21.06;48.19;101435.45;88809;1288;22038;-74
2022/10/13 08:16:04;;;;;;;9.70;6.40;;;;;;;20.78;48.14;101433.35;88701;1299;22103;-74
2022/10/13 08:18:14;;;;;;;16.30;6.20;;;;;;;20.35;47.72;101433.20;88802;1296;22008;-74
2022/10/13 08:20:22;;;;;;;10.90;5.70;;;;;;;19.92;47.19;101434.23;88817;1296;22017;-74
2022/10/13 08:22:33;;;;;;;11.40;6.80;;;;;;;19.45;48.18;101432.91;88818;1296;22583;-74
2022/10/13 08:24:41;;;;;;;13.00;7.00;;;;;;;18.99;48.16;101435.77;88819;1285;22049;-74
2022/10/13 08:26:51;;;;;;;12.00;7.10;;;;;;;18.58;48.53;101437.77;88619;1304;22057;-74
2022/10/13 08:29:00;;;;;;;11.20;6.70;;;;;;;18.24;48.94;101439.80;88664;1299;22163;-74
2022/10/13 08:31:09;;;;;;;13.70;6.50;;;;;;;17.98;49.47;101437.61;88825;1287;22045;-74
2022/10/13 08:33:18;;;;;;;21.30;8.00;;;;;;;17.75;50.28;101436.88;88611;1297;22568;-74
2022/10/13 08:35:26;;;;;;;11.00;7.20;;;;;;;17.53;50.83;101434.43;88798;1278;22021;-74
2022/10/13 08:37:35;;;;;;;15.90;7.00;;;;;;;17.31;49.55;101435.53;88808;1294;22068;-74
2022/10/13 08:39:44;;;;;;;9.90;6.70;;;;;;;17.19;50.47;101431.70;88583;1299;22057;-74
2022/10/13 08:41:53;;;;;;;15.10;7.10;;;;;;;17.13;50.60;101430.04;88775;1296;22054;-74
2022/10/13 08:44:13;;;;;;;12.00;6.70;;;;;;;17.06;51.01;101431.98;88803;1291;22031;-74
2022/10/13 08:46:28;;;;;;;17.30;6.90;;;;;;;16.96;50.95;101433.02;88804;1296;22054;-74
2022/10/13 08:48:45;;;;;;;14.90;7.40;;;;;;;16.94;51.23;101434.13;88796;1296;22103;-75
2022/10/13 08:50:56;;;;;;;10.30;5.50;;;;;;;16.89;50.51;101430.15;88566;1304;22082;-75
2022/10/13 08:53:07;;;;;;;10.40;5.90;;;;;;;16.80;50.61;101431.47;88695;1299;22072;-74
2022/10/13 08:55:22;;;;;;;12.30;5.90;;;;;;;16.75;50.42;101426.05;88672;1296;22127;-74
2022/10/13 08:57:32;;;;;;;7.40;5.00;;;;;;;16.69;49.60;101431.05;88601;1304;22811;-73
2022/10/13 08:59:41;;;;;;;8.90;5.40;;;;;;;16.62;49.34;101428.60;88786;1296;22069;-73
2022/10/13 09:01:50;;;;;;;8.20;4.30;;;;;;;16.67;50.37;101426.39;88822;1296;22063;-73
2022/10/13 09:04:06;;;;;;;10.60;5.30;;;;;;;16.94;49.82;101430.78;88609;1304;22052;-74
2022/10/13 09:06:18;;;;;;;12.60;6.30;;;;;;;17.35;49.46;101423.33;88812;1285;22058;-74
2022/10/13 09:08:29;;;;;;;8.70;4.80;;;;;;;17.80;48.77;101417.74;88818;1296;22036;-74
2022/10/13 09:10:47;;;;;;;11.60;4.60;;;;;;;18.42;49.19;101415.54;88594;1304;22103;-74
2022/10/13 09:12:59;;;;;;;9.50;4.50;;;;;;;19.13;46.52;101417.63;88692;1299;22728;-74
2022/10/13 09:15:10;;;;;;;9.50;4.50;;;;;;;19.60;45.24;101410.98;88809;1287;22679;-74
2022/10/13 09:17:25;;;;;;;7.20;4.20;;;;;;;20.12;45.37;101410.71;88838;1286;22045;-74
2022/10/13 09:19:35;;;;;;;7.20;4.80;;;;;;;20.67;44.73;101408.70;88629;1299;22076;-74
2022/10/13 09:21:44;;;;;;;6.40;4.10;;;;;;;21.26;43.61;101406.50;88797;1285;22656;-74
2022/10/13 09:23:57;;;;;;;7.50;4.40;;;;;;;21.67;42.69;101401.20;88595;1298;21967;-74
2022/10/13 09:26:15;;;;;;;9.60;4.80;;;;;;;22.11;41.57;101399.80;88796;1287;22039;-74
2022/10/13 09:28:31;;;;;;;8.40;4.70;;;;;;;22.52;40.92;101398.15;88801;1285;22033;-75
2022/10/13 09:30:41;;;;;;;12.40;4.40;;;;;;;22.82;40.63;101396.31;88799;1296;22087;-74
2022/10/13 09:32:51;;;;;;;;;;;;;;;23.14;40.02;101392.21;88817;1294;22274;-74
2022/10/13 09:34:58;;;;;;;;;;;;;;;23.30;38.82;101391.20;88823;1296;22224;-74
2022/10/13 09:37:16;;;;;;;7.20;4.20;;;;;;;23.40;39.03;101395.20;88814;1296;22017;-74
2022/10/13 09:39:24;;;;;;;9.50;4.40;;;;;;;23.67;38.58;101392.35;88581;1304;22057;-74
2022/10/13 09:41:34;;;;;;;11.20;5.30;;;;;;;23.83;37.41;101388.77;88583;1304;22072;-74
2022/10/13 09:43:57;;;;;;;10.20;5.30;;;;;;;23.88;37.36;101387.48;88608;1304;22117;-74
2022/10/13 09:46:11;;;;;;;8.20;4.80;;;;;;;23.94;36.82;101384.52;88758;1299;22081;-74
2022/10/13 09:48:24;;;;;;;8.30;4.10;;;;;;;23.89;36.27;101378.89;88595;1298;22065;-74
2022/10/13 09:50:33;;;;;;;8.80;4.20;;;;;;;23.65;35.28;101379.63;88813;1296;22070;-74
2022/10/13 09:52:45;;;;;;;12.60;5.60;;;;;;;23.15;34.59;101378.77;88815;1296;22014;-74
2022/10/13 09:54:59;;;;;;;9.00;5.60;;;;;;;22.50;35.00;101378.20;88698;1299;22846;-75
2022/10/13 09:57:10;;;;;;;8.20;4.40;;;;;;;21.88;35.79;101377.39;88604;1290;22903;-75
2022/10/13 09:59:24;;;;;;;11.30;3.80;;;;;;;21.30;36.67;101379.95;88614;1304;22064;-74
2022/10/13 10:01:35;;;;;;;8.90;3.90;;;;;;;20.75;36.93;101383.57;88465;1306;22124;-74
2022/10/13 10:03:43;;;;;;;8.50;4.60;;;;;;;20.21;37.36;101373.83;88823;1287;23006;-74
2022/10/13 10:05:54;;;;;;;10.40;4.50;;;;;;;19.70;38.02;101370.91;88803;1296;22106;-74
2022/10/13 10:08:11;;;;;;;8.80;4.00;;;;;;;19.25;38.47;101366.33;88812;1288;22053;-74
2022/10/13 10:10:30;;;;;;;9.10;4.10;;;;;;;18.78;39.00;101367.62;88837;1296;22686;-74
2022/10/13 10:12:39;;;;;;;9.80;4.30;;;;;;;18.33;39.33;101368.66;88828;1288;22240;-74
2022/10/13 10:14:49;;;;;;;8.40;4.30;;;;;;;17.96;40.42;101363.09;88811;1280;22574;-74
2022/10/13 10:17:02;;;;;;;9.40;4.40;;;;;;;17.72;41.31;101359.36;88767;1294;22082;-75
2022/10/13 10:19:16;;;;;;;11.30;4.40;;;;;;;17.51;41.41;101350.72;88607;1304;22749;-75
2022/10/13 10:21:31;;;;;;;6.90;3.60;;;;;;;17.34;42.32;101349.86;88694;1299;22120;-75
2022/10/13 10:23:51;;;;;;;8.80;3.70;;;;;;;17.20;42.18;101346.11;88818;1285;22019;-74
2022/10/13 10:26:01;;;;;;;;;;;;;;;17.01;42.23;101342.69;88586;1298;22493;-74
2022/10/13 10:28:29;;;;;;;7.90;3.40;;;;;;;16.78;42.94;101336.73;88624;1304;22081;-74
2022/10/13 10:30:40;;;;;;;9.40;4.00;;;;;;;16.68;43.61;101330.16;88794;1278;22627;-73
2022/10/13 10:32:52;;;;;;;6.50;3.70;;;;;;;16.62;43.57;101329.54;88596;1299;22033;-74
2022/10/13 10:35:04;;;;;;;10.90;4.30;;;;;;;16.51;43.55;101329.92;88621;1304;22093;-74
2022/10/13 10:37:21;;;;;;;6.60;3.30;;;;;;;16.40;43.56;101334.84;88774;1296;22757;-74